Time;durP1;ratioP1;P1;durP2;ratioP2;P2;SDS_P1;SDS_P2;PMS_P1;PMS_P2;Temp;Humidity;BMP_temperature;BMP_pressure;BME280_temperature;BME280_humidity;BME280_pressure;Samples;Min_cycle;Max_cycle;Signal;HPM_P1;HPM_P2
2023/10/30 00:01:45;;;;;;;0.70;0.20;;;12.20;99.90;;;;;;4995308;28;20207;-92
2023/10/30 00:04:13;;;;;;;1.47;1.37;;;12.30;99.90;;;;;;5011951;28;20191;-91
2023/10/30 00:06:39;;;;;;;0.80;0.80;;;12.30;99.90;;;;;;5007848;28;20691;-93
2023/10/30 00:09:05;;;;;;;4.00;1.03;;;12.30;99.90;;;;;;5012491;28;20202;-92
2023/10/30 00:11:31;;;;;;;0.20;0.20;;;12.30;99.90;;;;;;5019985;28;20226;-93
2023/10/30 00:13:56;;;;;;;0.70;0.57;;;12.20;99.90;;;;;;5029549;28;20214;-92
2023/10/30 00:16:22;;;;;;;0.20;0.20;;;12.30;99.90;;;;;;5028609;28;20252;-91
2023/10/30 00:18:49;;;;;;;2.03;1.23;;;12.30;99.90;;;;;;5014784;28;20183;-91
2023/10/30 00:21:15;;;;;;;1.57;1.13;;;12.20;99.90;;;;;;4998688;28;20217;-91
2023/10/30 00:23:41;;;;;;;1.33;0.73;;;12.20;99.90;;;;;;5016428;28;20725;-91
2023/10/30 00:26:07;;;;;;;0.30;0.30;;;12.20;99.90;;;;;;5016266;28;20206;-91
2023/10/30 00:28:34;;;;;;;0.30;0.30;;;12.20;99.90;;;;;;4999996;28;20214;-91
2023/10/30 00:31:01;;;;;;;0.60;0.50;;;12.20;99.90;;;;;;5050357;28;20674;-92
2023/10/30 00:33:27;;;;;;;0.10;0.10;;;12.20;99.90;;;;;;5048736;28;20292;-91
2023/10/30 00:35:53;;;;;;;1.40;0.43;;;12.20;99.90;;;;;;5033041;28;20218;-92
2023/10/30 00:38:18;;;;;;;2.23;0.50;;;12.20;99.90;;;;;;5000034;28;20261;-91
2023/10/30 00:40:44;;;;;;;0.30;0.30;;;12.20;99.90;;;;;;5015985;28;20292;-91
2023/10/30 00:43:11;;;;;;;0.30;0.27;;;12.20;99.90;;;;;;5000226;28;20190;-92
2023/10/30 00:45:36;;;;;;;0.40;0.40;;;12.30;99.90;;;;;;4999611;28;20213;-92
2023/10/30 00:48:02;;;;;;;0.50;0.50;;;12.30;99.90;;;;;;4999584;28;20214;-92
2023/10/30 00:50:28;;;;;;;1.87;1.77;;;12.30;99.90;;;;;;4999781;28;20214;-92
2023/10/30 00:52:54;;;;;;;4.63;1.00;;;12.20;99.90;;;;;;4999897;28;20296;-91
2023/10/30 00:55:20;;;;;;;0.80;0.80;;;12.20;99.90;;;;;;4998597;28;20187;-92
2023/10/30 00:57:45;;;;;;;7.00;0.20;;;12.20;99.90;;;;;;4998780;28;20191;-93
2023/10/30 01:00:11;;;;;;;2.40;0.43;;;12.10;99.90;;;;;;4998678;28;20222;-92
2023/10/30 01:02:39;;;;;;;2.07;0.30;;;12.10;99.90;;;;;;4999935;28;20218;-92
2023/10/30 01:05:05;;;;;;;4.73;1.10;;;12.10;99.90;;;;;;4999687;28;20272;-93
2023/10/30 01:07:31;;;;;;;2.10;0.20;;;12.10;99.90;;;;;;5015261;28;20201;-91
2023/10/30 01:09:57;;;;;;;3.30;0.30;;;12.10;99.90;;;;;;5032041;28;20183;-92
2023/10/30 01:12:22;;;;;;;4.33;1.13;;;12.00;99.90;;;;;;4997714;28;20250;-93
2023/10/30 01:14:48;;;;;;;0.33;0.33;;;12.00;99.90;;;;;;5032130;28;20297;-91
2023/10/30 01:17:14;;;;;;;3.90;0.40;;;12.00;99.90;;;;;;5023169;28;21282;-91
2023/10/30 01:19:40;;;;;;;0.30;0.30;;;12.00;99.90;;;;;;5013793;28;20313;-90
2023/10/30 01:22:06;;;;;;;0.10;0.10;;;12.00;99.90;;;;;;4998830;28;20221;-92
2023/10/30 01:24:31;;;;;;;0.20;0.20;;;12.00;99.90;;;;;;4997934;28;20246;-92
2023/10/30 01:26:57;;;;;;;0.10;0.10;;;12.00;99.90;;;;;;4999415;28;20213;-91
2023/10/30 01:29:23;;;;;;;2.93;0.40;;;12.00;99.90;;;;;;4998573;28;20670;-91
2023/10/30 01:31:49;;;;;;;2.93;0.30;;;12.10;99.90;;;;;;4997613;28;20236;-91
2023/10/30 01:34:14;;;;;;;0.53;0.40;;;12.10;99.90;;;;;;4990529;28;20221;-91
2023/10/30 01:36:40;;;;;;;2.93;0.57;;;12.10;99.90;;;;;;5015731;28;20202;-92
2023/10/30 01:39:06;;;;;;;0.00;0.00;;;12.10;99.90;;;;;;5014479;28;20329;-93
2023/10/30 01:41:32;;;;;;;0.17;0.17;;;12.20;99.90;;;;;;5039778;28;20234;-91
2023/10/30 01:43:57;;;;;;;0.73;0.73;;;12.10;99.90;;;;;;5014246;28;20210;-92
2023/10/30 01:46:23;;;;;;;0.30;0.30;;;12.20;99.90;;;;;;4999011;28;20236;-93
2023/10/30 01:48:49;;;;;;;2.90;0.23;;;12.20;99.90;;;;;;5015616;28;20229;-93
2023/10/30 01:51:20;;;;;;;0.30;0.30;;;12.10;99.90;;;;;;5031497;28;20222;-92
2023/10/30 01:53:48;;;;;;;1.20;0.17;;;12.20;99.90;;;;;;5014547;28;20221;-93
2023/10/30 01:56:16;;;;;;;0.20;0.20;;;12.20;99.90;;;;;;5030122;28;20237;-92
2023/10/30 01:58:42;;;;;;;0.73;0.43;;;12.10;99.90;;;;;;5046331;28;20555;-92
2023/10/30 02:01:08;;;;;;;1.70;0.50;;;12.10;99.90;;;;;;5014786;28;20194;-92
2023/10/30 02:03:34;;;;;;;1.57;1.47;;;12.10;99.90;;;;;;4996884;28;20218;-93
2023/10/30 02:06:00;;;;;;;0.27;0.20;;;12.10;99.90;;;;;;4997847;28;20807;-93
2023/10/30 02:08:26;;;;;;;0.23;0.23;;;12.10;99.90;;;;;;5013787;28;20686;-93
2023/10/30 02:10:52;;;;;;;0.87;0.40;;;12.10;99.90;;;;;;5013641;28;20218;-91
2023/10/30 02:13:18;;;;;;;0.20;0.20;;;12.00;99.90;;;;;;4996693;28;20209;-91
2023/10/30 02:15:44;;;;;;;0.10;0.10;;;12.00;99.90;;;;;;5014260;28;20274;-91
2023/10/30 02:18:10;;;;;;;1.53;0.40;;;12.00;99.90;;;;;;5012890;28;20221;-90
2023/10/30 02:20:37;;;;;;;0.20;0.20;;;11.90;99.90;;;;;;5013809;28;20218;-91
2023/10/30 02:23:03;;;;;;;0.30;0.30;;;11.90;99.90;;;;;;5030054;28;20289;-92
2023/10/30 02:25:32;;;;;;;0.27;0.20;;;11.90;99.90;;;;;;4978631;28;20254;-91
2023/10/30 02:27:58;;;;;;;1.70;0.33;;;11.90;99.90;;;;;;5011300;28;20179;-91
2023/10/30 02:30:26;;;;;;;0.83;0.83;;;11.90;99.90;;;;;;4979102;28;20219;-91
2023/10/30 02:32:52;;;;;;;0.70;0.60;;;11.90;99.90;;;;;;5027494;28;20230;-91
2023/10/30 02:35:18;;;;;;;1.33;0.87;;;11.90;99.90;;;;;;5009020;28;20714;-91
2023/10/30 02:37:45;;;;;;;11.00;0.50;;;12.00;99.90;;;;;;5010770;28;20361;-91
2023/10/30 02:40:12;;;;;;;1.70;0.20;;;12.00;99.90;;;;;;5011107;28;20273;-91
2023/10/30 02:42:39;;;;;;;0.30;0.30;;;12.00;99.90;;;;;;4994124;28;20210;-91
2023/10/30 02:45:05;;;;;;;1.50;0.60;;;11.90;99.90;;;;;;4977417;28;20224;-90
2023/10/30 02:47:33;;;;;;;0.10;0.10;;;11.90;99.90;;;;;;4977367;28;20923;-92
2023/10/30 02:50:00;;;;;;;0.20;0.20;;;11.80;99.90;;;;;;4999805;28;20207;-92
2023/10/30 02:52:26;;;;;;;0.27;0.23;;;11.80;99.90;;;;;;4992989;28;20209;-92
2023/10/30 02:54:52;;;;;;;1.00;0.40;;;11.70;99.90;;;;;;4976382;28;20183;-91
2023/10/30 02:57:18;;;;;;;0.10;0.10;;;11.60;99.90;;;;;;4992473;28;20214;-91
2023/10/30 02:59:43;;;;;;;0.83;0.67;;;11.50;99.90;;;;;;4992205;28;20211;-92
2023/10/30 03:02:09;;;;;;;0.10;0.10;;;11.40;99.90;;;;;;4976417;28;20222;-92
2023/10/30 03:04:35;;;;;;;0.20;0.20;;;11.40;99.90;;;;;;4975745;28;20310;-92
2023/10/30 03:07:01;;;;;;;0.30;0.30;;;11.40;99.90;;;;;;4993089;28;20276;-92
2023/10/30 03:09:29;;;;;;;0.20;0.20;;;11.40;99.90;;;;;;4991861;28;20247;-92
2023/10/30 03:11:55;;;;;;;0.20;0.20;;;11.40;99.90;;;;;;5007725;28;20565;-91
2023/10/30 03:14:21;;;;;;;0.20;0.20;;;11.40;99.90;;;;;;4975506;28;20225;-92
2023/10/30 03:16:47;;;;;;;0.20;0.20;;;11.40;99.90;;;;;;4976636;28;20273;-91
2023/10/30 03:19:13;;;;;;;0.50;0.50;;;11.50;99.90;;;;;;4977506;28;20190;-94
2023/10/30 03:21:39;;;;;;;0.40;0.40;;;11.50;99.90;;;;;;5008853;28;20297;-92
2023/10/30 03:24:05;;;;;;;0.30;0.30;;;11.50;99.90;;;;;;4982405;28;20239;-92
2023/10/30 03:26:31;;;;;;;1.80;1.10;;;11.50;99.90;;;;;;4993069;28;20226;-93
2023/10/30 03:28:57;;;;;;;0.93;0.67;;;11.50;99.90;;;;;;4991792;28;20214;-94
2023/10/30 03:31:23;;;;;;;9.03;0.83;;;11.40;99.90;;;;;;5008776;28;20191;-93
2023/10/30 03:33:49;;;;;;;1.67;0.77;;;11.30;99.90;;;;;;4986079;28;20191;-93
2023/10/30 03:36:19;;;;;;;0.63;0.63;;;11.30;99.90;;;;;;4991662;28;20218;-93
2023/10/30 03:38:45;;;;;;;0.40;0.40;;;11.20;99.90;;;;;;5024987;28;20264;-92
2023/10/30 03:41:10;;;;;;;0.30;0.30;;;11.30;99.90;;;;;;4977411;28;20249;-93
2023/10/30 03:43:36;;;;;;;2.23;0.33;;;11.30;99.90;;;;;;4993320;28;20226;-92
2023/10/30 03:46:02;;;;;;;1.07;1.07;;;11.30;99.90;;;;;;4978117;28;20554;-92
2023/10/30 03:48:28;;;;;;;0.63;0.63;;;11.40;99.90;;;;;;4991230;28;20687;-92
2023/10/30 03:50:54;;;;;;;0.40;0.40;;;11.50;99.90;;;;;;4974520;28;20226;-93
2023/10/30 03:53:19;;;;;;;0.67;0.67;;;11.50;99.90;;;;;;4976007;28;20226;-92
2023/10/30 03:55:45;;;;;;;0.57;0.40;;;11.50;99.90;;;;;;4975125;28;20250;-93
2023/10/30 03:58:12;;;;;;;2.47;0.40;;;11.50;99.90;;;;;;4992285;28;20199;-94
2023/10/30 04:00:38;;;;;;;0.87;0.50;;;11.50;99.90;;;;;;4991942;28;20218;-92
2023/10/30 04:03:03;;;;;;;1.40;0.37;;;11.50;99.90;;;;;;4991582;28;20211;-94
2023/10/30 04:05:29;;;;;;;0.13;0.13;;;11.50;99.90;;;;;;4993029;28;20226;-94
2023/10/30 04:07:55;;;;;;;0.20;0.20;;;11.50;99.90;;;;;;4993394;28;20221;-94
2023/10/30 04:10:21;;;;;;;0.77;0.40;;;11.50;99.90;;;;;;4992002;28;20194;-93
2023/10/30 04:12:47;;;;;;;1.07;0.97;;;11.50;99.90;;;;;;4976461;28;20218;-92
2023/10/30 04:15:15;;;;;;;0.40;0.40;;;11.50;99.90;;;;;;4975816;28;20218;-92
2023/10/30 04:17:41;;;;;;;0.80;0.77;;;11.40;99.90;;;;;;4977849;28;20226;-92
2023/10/30 04:20:07;;;;;;;0.40;0.40;;;11.40;99.90;;;;;;4992244;28;20319;-90
2023/10/30 04:22:32;;;;;;;3.50;0.60;;;11.40;99.90;;;;;;4975206;28;20230;-91
2023/10/30 04:24:58;;;;;;;0.20;0.20;;;11.40;99.90;;;;;;4989614;28;20876;-91
2023/10/30 04:27:24;;;;;;;0.70;0.70;;;11.40;99.90;;;;;;5011384;28;20698;-91
2023/10/30 04:29:49;;;;;;;0.57;0.57;;;11.40;99.90;;;;;;4994903;28;20218;-91
2023/10/30 04:32:15;;;;;;;3.07;0.80;;;11.50;99.90;;;;;;4994518;28;20233;-91
2023/10/30 04:34:41;;;;;;;3.27;0.90;;;11.50;99.90;;;;;;5021687;28;20222;-91
2023/10/30 04:37:07;;;;;;;0.33;0.33;;;11.50;99.90;;;;;;4995112;28;20182;-91
2023/10/30 04:39:33;;;;;;;0.20;0.13;;;11.50;99.90;;;;;;5012212;28;20222;-91
2023/10/30 04:41:59;;;;;;;3.83;0.87;;;11.40;99.90;;;;;;4993970;28;20218;-90
2023/10/30 04:44:25;;;;;;;0.80;0.70;;;11.40;99.90;;;;;;4995461;28;20307;-92
2023/10/30 04:46:52;;;;;;;1.47;1.37;;;11.40;99.90;;;;;;5027650;28;20214;-92
2023/10/30 04:49:18;;;;;;;0.53;0.50;;;11.40;99.90;;;;;;4997100;28;21001;-91
2023/10/30 04:51:43;;;;;;;7.50;0.97;;;11.40;99.90;;;;;;5001416;28;20207;-91
2023/10/30 04:54:09;;;;;;;0.10;0.10;;;11.40;99.90;;;;;;5002994;28;20226;-91
2023/10/30 04:56:35;;;;;;;0.30;0.30;;;11.30;99.90;;;;;;5023274;28;20214;-91
2023/10/30 04:59:01;;;;;;;0.40;0.40;;;11.30;99.90;;;;;;5012775;28;20234;-91
2023/10/30 05:01:26;;;;;;;0.40;0.33;;;11.30;99.90;;;;;;5000836;28;20183;-91
2023/10/30 05:03:52;;;;;;;0.50;0.50;;;11.40;99.90;;;;;;5000383;28;20232;-91
2023/10/30 05:06:18;;;;;;;0.60;0.30;;;11.40;99.90;;;;;;5000258;28;20221;-91
2023/10/30 05:08:44;;;;;;;0.77;0.60;;;11.50;99.90;;;;;;4999918;28;20234;-91
2023/10/30 05:11:10;;;;;;;1.60;0.73;;;11.50;99.90;;;;;;5018736;28;20222;-93
2023/10/30 05:13:36;;;;;;;3.50;0.97;;;11.50;99.90;;;;;;4999574;28;20222;-90
2023/10/30 05:16:01;;;;;;;3.30;0.70;;;11.60;99.90;;;;;;5016117;28;20194;-92
2023/10/30 05:18:30;;;;;;;0.90;0.77;;;11.60;99.90;;;;;;5031134;28;20291;-94
2023/10/30 05:20:56;;;;;;;2.63;0.50;;;11.60;99.90;;;;;;5014941;28;20218;-93
2023/10/30 05:23:21;;;;;;;0.30;0.30;;;11.60;99.90;;;;;;5031700;28;20245;-91
2023/10/30 05:25:47;;;;;;;0.23;0.23;;;11.60;99.90;;;;;;5014814;28;20280;-91
2023/10/30 05:28:13;;;;;;;5.50;0.60;;;11.60;99.90;;;;;;4999136;28;20195;-91
2023/10/30 05:30:39;;;;;;;2.73;0.60;;;11.60;99.90;;;;;;5000400;28;20221;-93
2023/10/30 05:33:05;;;;;;;0.20;0.20;;;11.50;99.90;;;;;;5031377;28;20549;-93
2023/10/30 05:35:31;;;;;;;0.40;0.30;;;11.50;99.90;;;;;;4999083;28;20226;-92
2023/10/30 05:37:57;;;;;;;0.47;0.47;;;11.50;99.90;;;;;;5015663;28;20684;-92
2023/10/30 05:40:23;;;;;;;7.63;0.50;;;11.50;99.90;;;;;;5014814;28;20187;-91
2023/10/30 05:42:49;;;;;;;1.20;0.73;;;11.50;99.90;;;;;;5032414;28;20193;-93
2023/10/30 05:45:15;;;;;;;0.10;0.10;;;11.40;99.90;;;;;;4998947;28;20221;-93
2023/10/30 05:47:41;;;;;;;0.50;0.40;;;11.40;99.90;;;;;;5031425;28;20298;-92
2023/10/30 05:50:09;;;;;;;6.80;1.33;;;11.40;99.90;;;;;;4998318;28;20229;-92
2023/10/30 05:52:35;;;;;;;3.27;0.77;;;11.40;99.90;;;;;;5015059;28;21034;-91
2023/10/30 05:55:02;;;;;;;7.63;1.07;;;11.40;99.90;;;;;;5021160;28;20198;-91
2023/10/30 05:57:28;;;;;;;1.03;0.93;;;11.50;99.90;;;;;;5014814;28;20218;-92
2023/10/30 05:59:53;;;;;;;1.40;1.07;;;11.40;99.90;;;;;;5038820;28;20572;-90
2023/10/30 06:02:19;;;;;;;0.50;0.50;;;11.30;99.90;;;;;;5047582;28;20272;-92
2023/10/30 06:04:46;;;;;;;3.43;1.40;;;11.30;99.90;;;;;;5015574;28;20221;-91
2023/10/30 06:07:12;;;;;;;2.87;0.50;;;11.30;99.90;;;;;;5031391;28;20657;-89
2023/10/30 06:09:38;;;;;;;0.40;0.40;;;11.20;99.90;;;;;;5014990;28;20178;-93
2023/10/30 06:12:04;;;;;;;0.63;0.63;;;11.10;99.90;;;;;;4996646;28;20245;-90
2023/10/30 06:14:29;;;;;;;1.00;0.83;;;11.10;99.90;;;;;;5015284;28;20304;-90
2023/10/30 06:16:55;;;;;;;1.97;1.70;;;11.00;99.90;;;;;;4998251;28;20303;-92
2023/10/30 06:19:21;;;;;;;2.43;0.60;;;11.00;99.90;;;;;;4998556;28;20273;-91
2023/10/30 06:21:47;;;;;;;0.30;0.30;;;11.00;99.90;;;;;;4999124;28;20198;-95
2023/10/30 06:24:13;;;;;;;0.60;0.60;;;11.00;99.90;;;;;;4997719;28;20230;-91
2023/10/30 06:26:41;;;;;;;0.20;0.20;;;11.00;99.90;;;;;;4988070;28;20224;-91
2023/10/30 06:29:07;;;;;;;0.30;0.30;;;11.00;99.90;;;;;;4996917;28;20214;-90
2023/10/30 06:31:35;;;;;;;6.30;0.20;;;11.00;99.90;;;;;;5004427;28;20231;-91
2023/10/30 06:34:01;;;;;;;0.53;0.53;;;11.00;99.90;;;;;;5005556;28;20213;-91
2023/10/30 06:36:27;;;;;;;4.43;1.50;;;11.00;99.90;;;;;;5021912;28;20246;-90
2023/10/30 06:38:55;;;;;;;0.97;0.97;;;11.00;99.90;;;;;;5002625;28;20207;-90
2023/10/30 06:41:21;;;;;;;0.13;0.13;;;11.00;99.90;;;;;;5005119;28;20215;-91
2023/10/30 06:43:51;;;;;;;0.57;0.57;;;11.00;99.90;;;;;;5021570;28;20678;-92
2023/10/30 06:46:16;;;;;;;0.20;0.20;;;11.00;99.90;;;;;;5003685;28;20209;-92
2023/10/30 06:48:42;;;;;;;2.83;0.80;;;11.00;99.90;;;;;;4986941;28;20206;-90
2023/10/30 06:51:08;;;;;;;1.47;1.37;;;11.00;99.90;;;;;;4990412;28;20210;-90
2023/10/30 06:53:34;;;;;;;0.20;0.20;;;11.10;99.90;;;;;;4987267;28;20242;-91
2023/10/30 06:55:59;;;;;;;1.07;0.70;;;11.20;99.90;;;;;;5005099;28;20221;-91
2023/10/30 06:58:25;;;;;;;0.60;0.60;;;11.30;99.90;;;;;;5020872;28;20260;-90
2023/10/30 07:00:51;;;;;;;0.60;0.60;;;11.40;99.90;;;;;;5024739;28;20253;-91
2023/10/30 07:03:17;;;;;;;0.20;0.20;;;11.60;99.90;;;;;;5003817;28;20896;-91
2023/10/30 07:05:43;;;;;;;0.20;0.20;;;11.60;99.90;;;;;;5021200;28;20293;-91
2023/10/30 07:08:09;;;;;;;2.10;0.77;;;11.70;99.90;;;;;;4987684;28;20616;-91
2023/10/30 07:10:35;;;;;;;0.53;0.53;;;11.70;99.90;;;;;;5007302;28;20268;-90
2023/10/30 07:13:01;;;;;;;0.40;0.40;;;11.60;99.90;;;;;;5022716;28;20222;-90
2023/10/30 07:15:27;;;;;;;0.70;0.33;;;11.60;99.90;;;;;;5004583;28;20304;-91
2023/10/30 07:17:56;;;;;;;22.37;1.20;;;11.70;99.90;;;;;;5003125;28;20294;-92
2023/10/30 07:20:22;;;;;;;6.00;1.07;;;11.70;99.90;;;;;;5012312;28;20214;-91
2023/10/30 07:22:48;;;;;;;0.63;0.63;;;11.70;99.90;;;;;;5007490;28;20212;-91
2023/10/30 07:25:14;;;;;;;0.60;0.60;;;11.70;99.90;;;;;;4990888;28;20234;-90
2023/10/30 07:27:40;;;;;;;5.37;0.80;;;11.80;99.90;;;;;;4992834;28;20226;-91
2023/10/30 07:30:08;;;;;;;0.30;0.30;;;11.80;99.90;;;;;;4953854;28;20626;-91
2023/10/30 07:32:34;;;;;;;5.70;0.40;;;11.90;99.90;;;;;;4958662;28;20242;-90
2023/10/30 07:35:00;;;;;;;0.70;0.67;;;12.00;99.90;;;;;;4957861;28;20222;-91
2023/10/30 07:37:27;;;;;;;0.43;0.30;;;12.10;99.90;;;;;;4975784;28;20647;-90
2023/10/30 07:39:53;;;;;;;1.60;1.13;;;12.30;99.90;;;;;;4976911;28;20179;-90
2023/10/30 07:42:18;;;;;;;3.63;0.80;;;12.40;99.90;;;;;;4951701;28;20802;-91
2023/10/30 07:44:44;;;;;;;0.87;0.87;;;12.60;99.90;;;;;;4976186;28;20220;-92
2023/10/30 07:47:11;;;;;;;3.23;0.60;;;12.70;99.90;;;;;;4958495;28;20220;-93
2023/10/30 07:49:37;;;;;;;0.30;0.30;;;12.80;99.90;;;;;;4960109;28;20222;-90
2023/10/30 07:52:03;;;;;;;1.00;0.93;;;13.00;99.90;;;;;;4970539;28;20215;-91
2023/10/30 07:54:29;;;;;;;0.13;0.13;;;13.90;99.90;;;;;;4958910;28;20217;-91
2023/10/30 07:56:55;;;;;;;1.10;1.03;;;14.00;99.90;;;;;;4974884;28;20294;-91
2023/10/30 07:59:21;;;;;;;2.93;0.57;;;13.80;99.90;;;;;;4959106;28;20219;-92
2023/10/30 08:01:47;;;;;;;4.50;1.13;;;13.80;99.90;;;;;;4958483;28;20301;-90
2023/10/30 08:04:13;;;;;;;0.47;0.47;;;14.50;99.90;;;;;;4998063;28;20645;-91
2023/10/30 08:06:38;;;;;;;0.70;0.57;;;15.30;99.90;;;;;;4991291;28;20215;-90
2023/10/30 08:09:05;;;;;;;2.20;0.70;;;16.30;99.90;;;;;;4957471;28;20211;-91
2023/10/30 08:11:32;;;;;;;0.70;0.70;;;16.70;99.90;;;;;;4953997;28;20219;-92
2023/10/30 08:13:57;;;;;;;1.03;0.63;;;16.50;99.90;;;;;;4968701;28;20960;-91
2023/10/30 08:16:23;;;;;;;1.37;1.07;;;15.90;99.90;;;;;;4951756;28;20195;-90
2023/10/30 08:18:49;;;;;;;0.83;0.60;;;15.60;99.90;;;;;;4959179;28;20191;-90
2023/10/30 08:21:15;;;;;;;3.37;0.60;;;15.40;99.90;;;;;;4958486;28;20207;-91
2023/10/30 08:23:40;;;;;;;6.87;0.80;;;15.00;99.90;;;;;;4956091;28;20222;-89
2023/10/30 08:26:06;;;;;;;0.83;0.83;;;14.80;99.90;;;;;;5011201;28;20244;-91
2023/10/30 08:28:33;;;;;;;2.13;1.20;;;14.80;99.90;;;;;;5011032;28;20884;-91
2023/10/30 08:30:58;;;;;;;0.47;0.40;;;14.50;99.90;;;;;;5011830;28;20221;-90
2023/10/30 08:33:24;;;;;;;0.83;0.57;;;14.50;99.90;;;;;;5011029;28;20269;-87
2023/10/30 08:35:50;;;;;;;10.90;1.10;;;14.20;99.90;;;;;;4996837;28;20217;-88
2023/10/30 08:38:16;;;;;;;0.63;0.43;;;13.80;99.90;;;;;;5030956;28;20218;-88
2023/10/30 08:40:41;;;;;;;2.07;0.80;;;13.70;99.90;;;;;;5032075;28;20240;-90
2023/10/30 08:43:07;;;;;;;0.83;0.47;;;13.90;99.90;;;;;;5015034;28;20202;-90
2023/10/30 08:45:33;;;;;;;3.40;0.83;;;13.90;99.90;;;;;;4998381;28;20662;-90
2023/10/30 08:47:59;;;;;;;0.87;0.87;;;13.90;99.90;;;;;;5014853;28;20551;-90
2023/10/30 08:50:25;;;;;;;1.87;0.50;;;14.10;99.90;;;;;;4998517;28;20790;-89
2023/10/30 08:52:50;;;;;;;0.93;0.93;;;14.10;99.90;;;;;;5013376;28;20222;-89
2023/10/30 08:55:16;;;;;;;0.60;0.60;;;14.10;99.90;;;;;;5030898;28;20225;-88
2023/10/30 08:57:42;;;;;;;0.30;0.30;;;14.10;99.90;;;;;;5015114;28;20190;-90
2023/10/30 09:00:08;;;;;;;11.13;1.00;;;13.70;99.90;;;;;;4997977;28;20305;-90
2023/10/30 09:02:34;;;;;;;1.07;0.53;;;13.50;99.90;;;;;;4998517;28;20276;-91
2023/10/30 09:05:00;;;;;;;1.80;0.83;;;13.40;99.90;;;;;;5013436;28;20202;-91
2023/10/30 09:07:26;;;;;;;0.50;0.50;;;13.40;99.90;;;;;;5015088;28;20191;-90
2023/10/30 09:09:52;;;;;;;0.30;0.30;;;13.50;99.90;;;;;;4999041;28;20209;-90
2023/10/30 09:12:18;;;;;;;1.27;0.57;;;13.50;99.90;;;;;;4997705;28;20813;-89
2023/10/30 09:14:44;;;;;;;2.83;0.73;;;13.50;99.90;;;;;;5013653;28;20206;-89
2023/10/30 09:17:09;;;;;;;0.87;0.50;;;13.50;99.90;;;;;;4998194;28;20214;-88
2023/10/30 09:19:36;;;;;;;5.13;0.70;;;13.60;99.90;;;;;;4997915;28;21083;-91
2023/10/30 09:22:03;;;;;;;5.00;0.83;;;13.60;99.90;;;;;;4998597;28;20758;-93
2023/10/30 09:24:29;;;;;;;5.30;0.87;;;13.70;99.90;;;;;;5007771;28;20553;-89
2023/10/30 09:26:55;;;;;;;4.30;0.80;;;13.60;99.90;;;;;;5011753;28;20619;-90
2023/10/30 09:29:21;;;;;;;1.20;0.57;;;13.80;99.90;;;;;;4987260;28;20219;-92
2023/10/30 09:31:49;;;;;;;0.67;0.47;;;13.80;99.90;;;;;;4980988;28;20207;-92
2023/10/30 09:34:16;;;;;;;9.00;0.70;;;13.90;99.90;;;;;;4995401;28;20202;-90
2023/10/30 09:36:41;;;;;;;1.60;0.73;;;14.00;99.90;;;;;;4996302;28;20187;-91
2023/10/30 09:39:07;;;;;;;1.00;1.00;;;14.00;99.90;;;;;;4994678;28;20203;-90
2023/10/30 09:41:41;;;;;;;1.67;1.23;;;13.90;99.90;;;;;;4990391;28;20233;-93
2023/10/30 09:44:09;;;;;;;1.80;0.60;;;13.90;99.90;;;;;;5004905;28;20207;-91
2023/10/30 09:46:39;;;;;;;0.80;0.80;;;14.10;99.90;;;;;;4995342;28;20233;-91
2023/10/30 09:49:13;;;;;;;0.90;0.47;;;14.20;99.90;;;;;;5013170;28;20202;-90
2023/10/30 09:51:43;;;;;;;1.40;0.83;;;14.30;99.90;;;;;;4995989;28;20545;-91
2023/10/30 09:54:12;;;;;;;1.80;1.30;;;14.30;99.90;;;;;;4989846;28;20273;-95
2023/10/30 09:56:38;;;;;;;2.17;1.20;;;14.40;99.90;;;;;;5011403;28;20221;-90
2023/10/30 09:59:05;;;;;;;3.63;0.60;;;14.20;99.90;;;;;;4978970;28;20257;-90
2023/10/30 10:01:30;;;;;;;2.30;0.30;;;14.40;99.90;;;;;;4977718;28;21188;-90
2023/10/30 10:03:56;;;;;;;0.80;0.50;;;14.60;99.90;;;;;;4986180;28;20241;-89
2023/10/30 10:06:22;;;;;;;1.40;0.57;;;14.80;99.90;;;;;;4979351;28;20273;-90
2023/10/30 10:08:48;;;;;;;1.07;0.97;;;14.90;99.90;;;;;;5008415;28;20230;-91
2023/10/30 10:11:15;;;;;;;9.33;1.13;;;15.00;99.90;;;;;;4994975;28;20222;-92
2023/10/30 10:13:48;;;;;;;3.30;0.90;;;15.10;99.90;;;;;;5010814;28;20226;-90
2023/10/30 10:16:14;;;;;;;2.20;1.03;;;15.10;99.90;;;;;;5011993;28;20190;-89
2023/10/30 10:18:39;;;;;;;1.00;0.73;;;15.10;99.90;;;;;;4978981;28;20251;-89
2023/10/30 10:21:09;;;;;;;1.00;0.63;;;15.10;99.90;;;;;;4993724;28;20229;-88
2023/10/30 10:23:36;;;;;;;10.00;1.20;;;15.00;99.90;;;;;;4977811;28;20306;-92
2023/10/30 10:26:14;;;;;;;7.00;0.80;;;15.00;99.90;;;;;;5002878;28;20284;-90
2023/10/30 10:28:44;;;;;;;1.27;1.17;;;14.90;99.90;;;;;;5010080;28;20325;-90
2023/10/30 10:31:10;;;;;;;2.83;1.00;;;14.80;99.90;;;;;;5010970;28;20190;-90
2023/10/30 10:33:37;;;;;;;4.27;1.90;;;14.70;99.90;;;;;;5010274;28;20805;-90
2023/10/30 10:36:04;;;;;;;1.37;0.77;;;14.90;99.90;;;;;;5028385;28;20218;-89
2023/10/30 10:38:33;;;;;;;1.17;1.10;;;14.90;99.90;;;;;;4993232;28;20208;-91
2023/10/30 10:40:59;;;;;;;2.03;1.10;;;14.90;99.90;;;;;;5008591;28;21117;-90
2023/10/30 10:43:27;;;;;;;0.83;0.57;;;14.90;99.90;;;;;;5027055;28;20557;-91
2023/10/30 10:45:54;;;;;;;2.00;1.00;;;15.00;99.90;;;;;;5003056;28;20175;-91
2023/10/30 10:48:22;;;;;;;7.70;0.67;;;15.10;99.90;;;;;;4996277;28;20230;-93
2023/10/30 10:50:48;;;;;;;0.70;0.60;;;15.10;99.90;;;;;;4994573;28;20215;-90
2023/10/30 10:53:17;;;;;;;3.90;1.17;;;15.20;99.90;;;;;;4994229;28;20229;-90
2023/10/30 10:55:45;;;;;;;4.90;1.03;;;15.50;99.90;;;;;;5010651;28;20214;-89
2023/10/30 10:58:12;;;;;;;0.40;0.40;;;16.00;99.90;;;;;;5008147;28;20183;-91
2023/10/30 11:00:52;;;;;;;1.20;0.50;;;16.40;99.90;;;;;;5011408;28;20214;-90
2023/10/30 11:03:19;;;;;;;1.03;1.00;;;16.20;99.90;;;;;;5008493;28;20752;-89
2023/10/30 11:05:48;;;;;;;0.63;0.63;;;16.90;99.90;;;;;;5005243;28;20206;-89
2023/10/30 11:08:36;;;;;;;0.90;0.67;;;17.00;99.90;;;;;;4999827;28;20218;-90
2023/10/30 11:11:37;;;;;;;0.53;0.53;;;17.40;99.90;;;;;;5023627;28;20297;-89
2023/10/30 11:14:22;;;;;;;3.30;1.23;;;17.10;99.90;;;;;;4948981;28;20233;-89
2023/10/30 11:17:00;;;;;;;7.63;0.80;;;17.00;99.90;;;;;;5008080;28;20305;-89
2023/10/30 11:19:31;;;;;;;0.70;0.70;;;16.80;99.90;;;;;;5007865;28;20607;-90
2023/10/30 11:21:57;;;;;;;1.33;0.93;;;16.80;99.90;;;;;;4994308;28;20179;-89
2023/10/30 11:24:39;;;;;;;1.23;0.70;;;17.00;99.90;;;;;;4986904;28;20249;-89
2023/10/30 11:27:27;;;;;;;0.57;0.57;;;17.10;99.90;;;;;;5042521;28;20223;-90
2023/10/30 11:29:53;;;;;;;2.57;0.83;;;17.30;99.90;;;;;;5029025;28;20222;-89
2023/10/30 11:32:18;;;;;;;3.53;0.47;;;17.30;99.90;;;;;;5027233;28;20938;-90
2023/10/30 11:34:44;;;;;;;1.20;0.77;;;17.40;99.90;;;;;;5010122;28;20218;-90
2023/10/30 11:37:12;;;;;;;1.37;1.07;;;17.10;99.90;;;;;;5012985;28;20232;-89
2023/10/30 11:39:49;;;;;;;0.83;0.83;;;16.70;99.90;;;;;;5011597;28;20238;-90
2023/10/30 11:42:24;;;;;;;4.07;1.50;;;16.60;99.90;;;;;;5011931;28;20217;-90
2023/10/30 11:45:24;;;;;;;2.40;0.50;;;16.70;99.90;;;;;;5026910;28;20230;-90
2023/10/30 11:47:58;;;;;;;1.33;0.80;;;16.90;99.90;;;;;;5012193;28;20215;-90
2023/10/30 11:50:31;;;;;;;0.63;0.63;;;16.90;99.90;;;;;;5028667;28;20361;-90
2023/10/30 11:53:07;;;;;;;1.77;1.00;;;17.00;99.90;;;;;;5028157;28;20226;-90
2023/10/30 11:55:36;;;;;;;4.53;1.07;;;17.10;99.90;;;;;;5044871;28;20253;-90
2023/10/30 11:58:03;;;;;;;0.97;0.90;;;17.10;99.90;;;;;;5044453;28;20598;-89
2023/10/30 12:00:30;;;;;;;4.50;1.40;;;16.70;99.90;;;;;;5020902;28;20210;-90
2023/10/30 12:02:56;;;;;;;2.10;0.67;;;16.30;99.90;;;;;;5028725;28;20202;-93
2023/10/30 12:05:24;;;;;;;1.10;0.83;;;16.00;99.90;;;;;;5028790;28;20223;-90
2023/10/30 12:07:50;;;;;;;2.70;0.67;;;15.60;99.90;;;;;;5029049;28;20214;-90
2023/10/30 12:10:17;;;;;;;4.57;0.80;;;15.50;99.90;;;;;;4994236;28;20631;-91
2023/10/30 12:12:42;;;;;;;3.13;0.63;;;15.60;99.90;;;;;;5013195;28;20202;-89
2023/10/30 12:15:09;;;;;;;1.27;0.87;;;15.50;99.90;;;;;;4994556;28;20251;-90
2023/10/30 12:17:36;;;;;;;0.87;0.60;;;15.50;99.90;;;;;;5020503;28;20226;-88
2023/10/30 12:20:03;;;;;;;5.27;1.03;;;15.30;99.90;;;;;;5035665;28;20282;-90
2023/10/30 12:22:29;;;;;;;2.03;0.83;;;15.40;99.90;;;;;;4995302;28;21176;-90
2023/10/30 12:24:57;;;;;;;1.90;0.60;;;15.60;99.90;;;;;;5028830;28;20223;-90
2023/10/30 12:27:23;;;;;;;6.17;1.20;;;15.70;99.90;;;;;;4995801;28;20218;-90
2023/10/30 12:29:55;;;;;;;0.47;0.47;;;15.80;99.90;;;;;;5033559;28;20253;-89
2023/10/30 12:32:21;;;;;;;2.10;0.97;;;15.80;99.90;;;;;;5011009;28;20710;-90
2023/10/30 12:34:47;;;;;;;4.30;0.93;;;15.70;99.90;;;;;;5027396;28;20293;-88
2023/10/30 12:37:26;;;;;;;4.00;1.23;;;15.60;99.90;;;;;;5027616;28;20190;-89
2023/10/30 12:40:05;;;;;;;5.07;0.90;;;15.50;99.90;;;;;;5020677;28;20186;-90
2023/10/30 12:42:35;;;;;;;0.57;0.57;;;15.50;99.90;;;;;;5028426;28;20252;-90
2023/10/30 12:45:28;;;;;;;0.73;0.73;;;15.50;99.90;;;;;;5011678;28;20715;-90